sensor_id;sensor_type;location;lat;lon;timestamp;temperature;humidity
19555;DHT22;9924;50.828;6.440;2023-05-10T00:01:54;13.40;99.90
19555;DHT22;9924;50.828;6.440;2023-05-10T00:04:39;13.40;99.90
19555;DHT22;9924;50.828;6.440;2023-05-10T00:07:24;13.40;99.90
19555;DHT22;9924;50.828;6.440;2023-05-10T00:10:09;13.30;99.90
19555;DHT22;9924;50.828;6.440;2023-05-10T00:12:54;13.40;99.90
19555;DHT22;9924;50.828;6.440;2023-05-10T00:15:40;13.40;99.90
19555;DHT22;9924;50.828;6.440;2023-05-10T00:18:25;13.40;99.90
19555;DHT22;9924;50.828;6.440;2023-05-10T00:21:11;13.30;99.90
19555;DHT22;9924;50.828;6.440;2023-05-10T00:23:56;13.30;99.90
19555;DHT22;9924;50.828;6.440;2023-05-10T00:26:42;13.30;99.90
19555;DHT22;9924;50.828;6.440;2023-05-10T00:29:27;13.30;99.90
19555;DHT22;9924;50.828;6.440;2023-05-10T00:32:13;13.30;99.90
19555;DHT22;9924;50.828;6.440;2023-05-10T00:34:58;13.30;99.90
19555;DHT22;9924;50.828;6.440;2023-05-10T00:37:43;13.40;99.90
19555;DHT22;9924;50.828;6.440;2023-05-10T00:40:31;13.30;99.90
19555;DHT22;9924;50.828;6.440;2023-05-10T00:43:17;13.30;99.90
19555;DHT22;9924;50.828;6.440;2023-05-10T00:46:02;13.30;99.90
19555;DHT22;9924;50.828;6.440;2023-05-10T00:48:47;13.30;99.90
19555;DHT22;9924;50.828;6.440;2023-05-10T00:51:32;13.30;99.90
19555;DHT22;9924;50.828;6.440;2023-05-10T00:54:20;13.20;99.90
19555;DHT22;9924;50.828;6.440;2023-05-10T00:57:04;13.20;99.90
19555;DHT22;9924;50.828;6.440;2023-05-10T00:59:49;13.20;99.90
19555;DHT22;9924;50.828;6.440;2023-05-10T01:02:34;13.20;99.90
19555;DHT22;9924;50.828;6.440;2023-05-10T01:05:20;13.30;99.90
19555;DHT22;9924;50.828;6.440;2023-05-10T01:08:06;13.30;99.90
19555;DHT22;9924;50.828;6.440;2023-05-10T01:10:55;13.20;99.90
19555;DHT22;9924;50.828;6.440;2023-05-10T01:13:42;13.30;99.90
19555;DHT22;9924;50.828;6.440;2023-05-10T01:16:32;13.20;99.90
19555;DHT22;9924;50.828;6.440;2023-05-10T01:19:19;13.20;99.90
19555;DHT22;9924;50.828;6.440;2023-05-10T01:22:30;13.20;99.90
19555;DHT22;9924;50.828;6.440;2023-05-10T01:28:33;13.30;99.90
19555;DHT22;9924;50.828;6.440;2023-05-10T01:34:20;13.30;99.90
19555;DHT22;9924;50.828;6.440;2023-05-10T01:37:09;13.40;99.90
19555;DHT22;9924;50.828;6.440;2023-05-10T01:39:58;13.40;99.90
19555;DHT22;9924;50.828;6.440;2023-05-10T01:42:55;13.40;99.90
19555;DHT22;9924;50.828;6.440;2023-05-10T01:46:05;13.30;99.90
19555;DHT22;9924;50.828;6.440;2023-05-10T01:48:57;13.40;99.90
19555;DHT22;9924;50.828;6.440;2023-05-10T01:51:46;13.30;99.90
19555;DHT22;9924;50.828;6.440;2023-05-10T01:54:33;13.40;99.90
19555;DHT22;9924;50.828;6.440;2023-05-10T01:57:22;13.40;99.90
19555;DHT22;9924;50.828;6.440;2023-05-10T02:00:11;13.30;99.90
19555;DHT22;9924;50.828;6.440;2023-05-10T02:02:59;13.30;99.90
19555;DHT22;9924;50.828;6.440;2023-05-10T02:05:46;13.30;99.90
19555;DHT22;9924;50.828;6.440;2023-05-10T02:08:35;13.20;99.90
19555;DHT22;9924;50.828;6.440;2023-05-10T02:11:21;13.30;99.90
19555;DHT22;9924;50.828;6.440;2023-05-10T02:14:10;13.20;99.90
19555;DHT22;9924;50.828;6.440;2023-05-10T02:16:56;13.30;99.90
19555;DHT22;9924;50.828;6.440;2023-05-10T02:19:42;13.30;99.90
19555;DHT22;9924;50.828;6.440;2023-05-10T02:22:28;13.40;99.90
19555;DHT22;9924;50.828;6.440;2023-05-10T02:25:14;13.30;99.90
19555;DHT22;9924;50.828;6.440;2023-05-10T02:28:01;13.40;99.90
19555;DHT22;9924;50.828;6.440;2023-05-10T02:30:47;13.40;99.90
19555;DHT22;9924;50.828;6.440;2023-05-10T02:33:33;13.40;99.90
19555;DHT22;9924;50.828;6.440;2023-05-10T02:36:21;13.40;99.90
19555;DHT22;9924;50.828;6.440;2023-05-10T02:39:08;13.40;99.90
19555;DHT22;9924;50.828;6.440;2023-05-10T02:41:57;13.40;99.90
19555;DHT22;9924;50.828;6.440;2023-05-10T02:44:43;13.40;99.90
19555;DHT22;9924;50.828;6.440;2023-05-10T02:47:30;13.40;99.90
19555;DHT22;9924;50.828;6.440;2023-05-10T02:50:14;13.40;99.90
19555;DHT22;9924;50.828;6.440;2023-05-10T02:53:11;13.40;99.90
19555;DHT22;9924;50.828;6.440;2023-05-10T02:56:01;13.40;99.90
19555;DHT22;9924;50.828;6.440;2023-05-10T02:58:58;13.30;99.90
19555;DHT22;9924;50.828;6.440;2023-05-10T03:01:42;13.30;99.90
19555;DHT22;9924;50.828;6.440;2023-05-10T03:04:27;13.30;99.90
19555;DHT22;9924;50.828;6.440;2023-05-10T03:07:12;13.30;99.90
19555;DHT22;9924;50.828;6.440;2023-05-10T03:09:57;13.20;99.90
19555;DHT22;9924;50.828;6.440;2023-05-10T03:13:07;13.20;99.90
19555;DHT22;9924;50.828;6.440;2023-05-10T03:16:14;13.10;99.90
19555;DHT22;9924;50.828;6.440;2023-05-10T03:22:08;13.00;99.90
19555;DHT22;9924;50.828;6.440;2023-05-10T03:24:56;13.00;99.90
19555;DHT22;9924;50.828;6.440;2023-05-10T03:27:43;13.00;99.90
19555;DHT22;9924;50.828;6.440;2023-05-10T03:30:29;13.00;99.90
19555;DHT22;9924;50.828;6.440;2023-05-10T03:33:15;13.00;99.90
19555;DHT22;9924;50.828;6.440;2023-05-10T03:36:00;13.10;99.90
19555;DHT22;9924;50.828;6.440;2023-05-10T03:38:45;13.00;99.90
19555;DHT22;9924;50.828;6.440;2023-05-10T03:41:31;13.00;99.90
19555;DHT22;9924;50.828;6.440;2023-05-10T03:44:15;12.90;99.90
19555;DHT22;9924;50.828;6.440;2023-05-10T03:47:00;12.90;99.90
19555;DHT22;9924;50.828;6.440;2023-05-10T03:49:45;12.90;99.90
19555;DHT22;9924;50.828;6.440;2023-05-10T03:52:30;12.90;99.90
19555;DHT22;9924;50.828;6.440;2023-05-10T03:55:16;12.90;99.90
19555;DHT22;9924;50.828;6.440;2023-05-10T03:58:01;12.90;99.90
19555;DHT22;9924;50.828;6.440;2023-05-10T04:00:46;12.90;99.90
19555;DHT22;9924;50.828;6.440;2023-05-10T04:03:31;12.90;99.90
19555;DHT22;9924;50.828;6.440;2023-05-10T04:06:19;12.90;99.90
19555;DHT22;9924;50.828;6.440;2023-05-10T04:09:13;12.80;99.90
19555;DHT22;9924;50.828;6.440;2023-05-10T04:11:59;12.80;99.90
19555;DHT22;9924;50.828;6.440;2023-05-10T04:14:46;12.80;99.90
19555;DHT22;9924;50.828;6.440;2023-05-10T04:17:32;12.70;99.90
19555;DHT22;9924;50.828;6.440;2023-05-10T04:20:16;12.70;99.90
19555;DHT22;9924;50.828;6.440;2023-05-10T04:23:01;12.80;99.90
19555;DHT22;9924;50.828;6.440;2023-05-10T04:25:46;12.80;99.90
19555;DHT22;9924;50.828;6.440;2023-05-10T04:28:30;12.80;99.90
19555;DHT22;9924;50.828;6.440;2023-05-10T04:31:22;12.80;99.90
19555;DHT22;9924;50.828;6.440;2023-05-10T04:34:08;12.80;99.90
19555;DHT22;9924;50.828;6.440;2023-05-10T04:36:52;12.80;99.90
19555;DHT22;9924;50.828;6.440;2023-05-10T04:39:37;12.90;99.90
19555;DHT22;9924;50.828;6.440;2023-05-10T04:42:23;12.80;99.90
19555;DHT22;9924;50.828;6.440;2023-05-10T04:45:07;12.80;99.90
19555;DHT22;9924;50.828;6.440;2023-05-10T04:47:55;12.80;99.90
19555;DHT22;9924;50.828;6.440;2023-05-10T04:50:44;12.80;99.90
19555;DHT22;9924;50.828;6.440;2023-05-10T04:53:29;12.80;99.90
19555;DHT22;9924;50.828;6.440;2023-05-10T04:56:14;12.80;99.90
19555;DHT22;9924;50.828;6.440;2023-05-10T04:58:59;12.80;99.90
19555;DHT22;9924;50.828;6.440;2023-05-10T05:01:45;12.80;99.90
19555;DHT22;9924;50.828;6.440;2023-05-10T05:04:30;12.80;99.90
19555;DHT22;9924;50.828;6.440;2023-05-10T05:07:16;12.80;99.90
19555;DHT22;9924;50.828;6.440;2023-05-10T05:10:01;12.90;99.90
19555;DHT22;9924;50.828;6.440;2023-05-10T05:12:46;12.90;99.90
19555;DHT22;9924;50.828;6.440;2023-05-10T05:15:30;12.90;99.90
19555;DHT22;9924;50.828;6.440;2023-05-10T05:18:15;13.00;99.90
19555;DHT22;9924;50.828;6.440;2023-05-10T05:21:00;13.00;99.90
19555;DHT22;9924;50.828;6.440;2023-05-10T05:23:45;13.00;99.90
19555;DHT22;9924;50.828;6.440;2023-05-10T05:26:30;13.00;99.90
19555;DHT22;9924;50.828;6.440;2023-05-10T05:29:15;13.10;99.90
19555;DHT22;9924;50.828;6.440;2023-05-10T05:32:00;13.10;99.90
19555;DHT22;9924;50.828;6.440;2023-05-10T05:34:46;13.10;99.90
19555;DHT22;9924;50.828;6.440;2023-05-10T05:37:31;13.10;99.90
19555;DHT22;9924;50.828;6.440;2023-05-10T05:40:16;13.10;99.90
19555;DHT22;9924;50.828;6.440;2023-05-10T05:43:01;13.10;99.90
19555;DHT22;9924;50.828;6.440;2023-05-10T05:48:41;13.20;99.90
19555;DHT22;9924;50.828;6.440;2023-05-10T05:51:26;13.20;99.90
19555;DHT22;9924;50.828;6.440;2023-05-10T05:54:11;13.20;99.90
19555;DHT22;9924;50.828;6.440;2023-05-10T05:56:58;13.10;99.90
19555;DHT22;9924;50.828;6.440;2023-05-10T05:59:43;13.20;99.90
19555;DHT22;9924;50.828;6.440;2023-05-10T06:02:28;13.20;99.90
19555;DHT22;9924;50.828;6.440;2023-05-10T06:05:13;13.20;99.90
19555;DHT22;9924;50.828;6.440;2023-05-10T06:08:00;13.20;99.90
19555;DHT22;9924;50.828;6.440;2023-05-10T06:10:48;13.20;99.90
19555;DHT22;9924;50.828;6.440;2023-05-10T06:13:33;13.20;99.90
19555;DHT22;9924;50.828;6.440;2023-05-10T06:16:21;13.20;99.90
19555;DHT22;9924;50.828;6.440;2023-05-10T06:19:07;13.30;99.90
19555;DHT22;9924;50.828;6.440;2023-05-10T06:21:51;13.30;99.90
19555;DHT22;9924;50.828;6.440;2023-05-10T06:24:40;13.40;99.90
19555;DHT22;9924;50.828;6.440;2023-05-10T06:27:25;13.50;99.90
19555;DHT22;9924;50.828;6.440;2023-05-10T06:30:11;13.60;99.90
19555;DHT22;9924;50.828;6.440;2023-05-10T06:32:59;13.70;99.90
19555;DHT22;9924;50.828;6.440;2023-05-10T06:35:43;13.90;99.90
19555;DHT22;9924;50.828;6.440;2023-05-10T06:38:32;13.90;99.90
19555;DHT22;9924;50.828;6.440;2023-05-10T06:41:21;14.00;99.90
19555;DHT22;9924;50.828;6.440;2023-05-10T06:44:05;14.10;99.90
19555;DHT22;9924;50.828;6.440;2023-05-10T06:46:50;14.20;99.90
19555;DHT22;9924;50.828;6.440;2023-05-10T06:49:36;14.30;99.90
19555;DHT22;9924;50.828;6.440;2023-05-10T06:52:21;14.20;99.90
19555;DHT22;9924;50.828;6.440;2023-05-10T06:55:06;14.30;99.90
19555;DHT22;9924;50.828;6.440;2023-05-10T06:57:52;14.20;99.90
19555;DHT22;9924;50.828;6.440;2023-05-10T07:00:39;14.10;99.90
19555;DHT22;9924;50.828;6.440;2023-05-10T07:03:27;14.00;99.90
19555;DHT22;9924;50.828;6.440;2023-05-10T07:06:12;14.00;99.90
19555;DHT22;9924;50.828;6.440;2023-05-10T07:08:57;14.10;99.90
19555;DHT22;9924;50.828;6.440;2023-05-10T07:11:42;14.20;99.90
19555;DHT22;9924;50.828;6.440;2023-05-10T07:14:27;14.20;99.90
19555;DHT22;9924;50.828;6.440;2023-05-10T07:17:12;14.20;99.90
19555;DHT22;9924;50.828;6.440;2023-05-10T07:20:02;14.10;99.90
19555;DHT22;9924;50.828;6.440;2023-05-10T07:22:47;14.00;99.90
19555;DHT22;9924;50.828;6.440;2023-05-10T07:25:32;13.90;99.90
19555;DHT22;9924;50.828;6.440;2023-05-10T07:28:19;13.80;99.90
19555;DHT22;9924;50.828;6.440;2023-05-10T07:31:05;13.70;99.90
19555;DHT22;9924;50.828;6.440;2023-05-10T07:33:50;13.70;99.90
19555;DHT22;9924;50.828;6.440;2023-05-10T07:36:36;13.70;99.90
19555;DHT22;9924;50.828;6.440;2023-05-10T07:39:20;13.60;99.90
19555;DHT22;9924;50.828;6.440;2023-05-10T07:42:08;13.60;99.90
19555;DHT22;9924;50.828;6.440;2023-05-10T07:44:53;13.60;99.90
19555;DHT22;9924;50.828;6.440;2023-05-10T07:47:38;13.60;99.90
19555;DHT22;9924;50.828;6.440;2023-05-10T07:50:22;13.70;99.90
19555;DHT22;9924;50.828;6.440;2023-05-10T07:53:07;13.70;99.90
19555;DHT22;9924;50.828;6.440;2023-05-10T07:55:55;13.70;99.90
19555;DHT22;9924;50.828;6.440;2023-05-10T07:58:42;14.00;99.90
19555;DHT22;9924;50.828;6.440;2023-05-10T08:01:29;14.10;99.90
19555;DHT22;9924;50.828;6.440;2023-05-10T08:04:17;14.30;99.90
19555;DHT22;9924;50.828;6.440;2023-05-10T08:07:02;14.40;99.90
19555;DHT22;9924;50.828;6.440;2023-05-10T08:09:47;14.40;99.90
19555;DHT22;9924;50.828;6.440;2023-05-10T08:12:32;14.50;99.90
19555;DHT22;9924;50.828;6.440;2023-05-10T08:15:17;14.50;99.90
19555;DHT22;9924;50.828;6.440;2023-05-10T08:18:05;14.50;99.90
19555;DHT22;9924;50.828;6.440;2023-05-10T08:20:50;14.60;99.90
19555;DHT22;9924;50.828;6.440;2023-05-10T08:23:35;14.60;99.90
19555;DHT22;9924;50.828;6.440;2023-05-10T08:26:20;14.50;99.90
19555;DHT22;9924;50.828;6.440;2023-05-10T08:29:05;14.50;99.90
19555;DHT22;9924;50.828;6.440;2023-05-10T08:31:49;14.60;99.90
19555;DHT22;9924;50.828;6.440;2023-05-10T08:34:37;14.90;99.90
19555;DHT22;9924;50.828;6.440;2023-05-10T08:37:23;15.00;99.90
19555;DHT22;9924;50.828;6.440;2023-05-10T08:40:09;15.10;99.90
19555;DHT22;9924;50.828;6.440;2023-05-10T08:43:14;15.20;99.90
19555;DHT22;9924;50.828;6.440;2023-05-10T08:46:02;15.40;99.90
19555;DHT22;9924;50.828;6.440;2023-05-10T08:48:49;15.60;99.90
19555;DHT22;9924;50.828;6.440;2023-05-10T08:51:36;15.60;99.90
19555;DHT22;9924;50.828;6.440;2023-05-10T08:54:27;15.50;99.90
19555;DHT22;9924;50.828;6.440;2023-05-10T08:57:12;15.50;99.90
19555;DHT22;9924;50.828;6.440;2023-05-10T08:59:58;15.30;99.90
19555;DHT22;9924;50.828;6.440;2023-05-10T09:02:45;15.40;99.90
19555;DHT22;9924;50.828;6.440;2023-05-10T09:05:31;15.60;99.90
19555;DHT22;9924;50.828;6.440;2023-05-10T09:08:16;15.50;99.90
19555;DHT22;9924;50.828;6.440;2023-05-10T09:11:01;15.50;99.90
19555;DHT22;9924;50.828;6.440;2023-05-10T09:13:48;15.50;99.90
19555;DHT22;9924;50.828;6.440;2023-05-10T09:16:34;15.40;99.90
19555;DHT22;9924;50.828;6.440;2023-05-10T09:19:19;15.20;99.90
19555;DHT22;9924;50.828;6.440;2023-05-10T09:22:04;15.10;99.90
19555;DHT22;9924;50.828;6.440;2023-05-10T09:25:03;14.90;99.90
19555;DHT22;9924;50.828;6.440;2023-05-10T09:27:49;14.80;99.90
19555;DHT22;9924;50.828;6.440;2023-05-10T09:30:34;14.90;99.90
19555;DHT22;9924;50.828;6.440;2023-05-10T09:33:19;15.00;99.90
19555;DHT22;9924;50.828;6.440;2023-05-10T09:36:07;14.80;99.90
19555;DHT22;9924;50.828;6.440;2023-05-10T09:38:53;14.70;99.90
19555;DHT22;9924;50.828;6.440;2023-05-10T09:41:45;14.60;99.90
19555;DHT22;9924;50.828;6.440;2023-05-10T09:44:31;14.60;99.90
19555;DHT22;9924;50.828;6.440;2023-05-10T09:47:19;14.90;99.90
19555;DHT22;9924;50.828;6.440;2023-05-10T09:50:05;15.20;99.90
19555;DHT22;9924;50.828;6.440;2023-05-10T09:52:54;15.10;99.90
19555;DHT22;9924;50.828;6.440;2023-05-10T09:55:44;15.00;99.90
19555;DHT22;9924;50.828;6.440;2023-05-10T09:58:30;15.00;99.90
19555;DHT22;9924;50.828;6.440;2023-05-10T10:01:15;15.00;99.90
19555;DHT22;9924;50.828;6.440;2023-05-10T10:04:05;15.10;99.90
19555;DHT22;9924;50.828;6.440;2023-05-10T10:07:04;15.30;99.90
19555;DHT22;9924;50.828;6.440;2023-05-10T10:09:49;15.30;99.90
19555;DHT22;9924;50.828;6.440;2023-05-10T10:12:33;15.40;99.90
19555;DHT22;9924;50.828;6.440;2023-05-10T10:15:23;15.50;99.90
19555;DHT22;9924;50.828;6.440;2023-05-10T10:18:12;15.50;99.90
19555;DHT22;9924;50.828;6.440;2023-05-10T10:20:57;15.30;99.90
19555;DHT22;9924;50.828;6.440;2023-05-10T10:23:43;15.20;99.90
19555;DHT22;9924;50.828;6.440;2023-05-10T10:26:29;15.30;99.90
19555;DHT22;9924;50.828;6.440;2023-05-10T10:29:36;15.40;99.90
19555;DHT22;9924;50.828;6.440;2023-05-10T10:35:23;16.80;99.90
19555;DHT22;9924;50.828;6.440;2023-05-10T10:38:08;16.90;99.90
19555;DHT22;9924;50.828;6.440;2023-05-10T10:41:10;17.10;99.90
19555;DHT22;9924;50.828;6.440;2023-05-10T10:47:22;17.00;99.90
19555;DHT22;9924;50.828;6.440;2023-05-10T10:50:09;16.80;99.90
19555;DHT22;9924;50.828;6.440;2023-05-10T10:53:10;16.80;99.90
19555;DHT22;9924;50.828;6.440;2023-05-10T10:56:12;17.00;99.90
19555;DHT22;9924;50.828;6.440;2023-05-10T10:58:59;17.20;99.90
19555;DHT22;9924;50.828;6.440;2023-05-10T11:01:45;17.40;99.90
19555;DHT22;9924;50.828;6.440;2023-05-10T11:04:43;17.70;99.90
19555;DHT22;9924;50.828;6.440;2023-05-10T11:07:31;17.60;99.90
19555;DHT22;9924;50.828;6.440;2023-05-10T11:10:20;17.50;99.90
19555;DHT22;9924;50.828;6.440;2023-05-10T11:13:10;17.40;99.90
19555;DHT22;9924;50.828;6.440;2023-05-10T11:15:55;17.50;99.90
19555;DHT22;9924;50.828;6.440;2023-05-10T11:19:04;17.50;99.90
19555;DHT22;9924;50.828;6.440;2023-05-10T11:22:13;17.40;99.90
19555;DHT22;9924;50.828;6.440;2023-05-10T11:24:58;17.70;99.90
19555;DHT22;9924;50.828;6.440;2023-05-10T11:27:43;17.60;99.90
19555;DHT22;9924;50.828;6.440;2023-05-10T11:30:29;17.70;99.90
19555;DHT22;9924;50.828;6.440;2023-05-10T11:33:17;17.70;99.90
19555;DHT22;9924;50.828;6.440;2023-05-10T11:36:08;17.70;99.90
19555;DHT22;9924;50.828;6.440;2023-05-10T11:38:56;17.60;99.90
19555;DHT22;9924;50.828;6.440;2023-05-10T11:41:41;17.50;99.90
19555;DHT22;9924;50.828;6.440;2023-05-10T11:44:33;17.00;99.90
19555;DHT22;9924;50.828;6.440;2023-05-10T11:47:18;17.10;99.90
19555;DHT22;9924;50.828;6.440;2023-05-10T11:50:03;17.00;99.90
19555;DHT22;9924;50.828;6.440;2023-05-10T11:52:56;16.90;99.90
19555;DHT22;9924;50.828;6.440;2023-05-10T11:55:41;17.00;99.90
19555;DHT22;9924;50.828;6.440;2023-05-10T11:58:25;17.20;99.90
19555;DHT22;9924;50.828;6.440;2023-05-10T12:01:10;17.50;99.90
19555;DHT22;9924;50.828;6.440;2023-05-10T12:03:57;17.70;99.90
19555;DHT22;9924;50.828;6.440;2023-05-10T12:06:45;17.90;99.90
19555;DHT22;9924;50.828;6.440;2023-05-10T12:09:30;18.10;99.90
19555;DHT22;9924;50.828;6.440;2023-05-10T12:12:18;18.40;99.90
19555;DHT22;9924;50.828;6.440;2023-05-10T12:15:03;18.70;99.90
19555;DHT22;9924;50.828;6.440;2023-05-10T12:17:49;18.60;99.90
19555;DHT22;9924;50.828;6.440;2023-05-10T12:20:34;18.50;99.90
19555;DHT22;9924;50.828;6.440;2023-05-10T12:23:20;18.50;99.90
19555;DHT22;9924;50.828;6.440;2023-05-10T12:26:05;18.60;99.90
19555;DHT22;9924;50.828;6.440;2023-05-10T12:28:50;18.60;99.90
19555;DHT22;9924;50.828;6.440;2023-05-10T12:31:55;18.40;99.90
19555;DHT22;9924;50.828;6.440;2023-05-10T12:34:41;18.20;99.90
19555;DHT22;9924;50.828;6.440;2023-05-10T12:37:28;17.90;99.90
19555;DHT22;9924;50.828;6.440;2023-05-10T12:40:12;17.60;99.90
19555;DHT22;9924;50.828;6.440;2023-05-10T12:42:57;17.60;99.90
19555;DHT22;9924;50.828;6.440;2023-05-10T12:45:42;17.60;99.90
19555;DHT22;9924;50.828;6.440;2023-05-10T12:48:27;17.40;99.90
19555;DHT22;9924;50.828;6.440;2023-05-10T12:51:13;17.00;99.90
19555;DHT22;9924;50.828;6.440;2023-05-10T12:54:02;16.70;99.90
19555;DHT22;9924;50.828;6.440;2023-05-10T12:56:47;16.60;99.90
19555;DHT22;9924;50.828;6.440;2023-05-10T12:59:32;16.40;99.90
19555;DHT22;9924;50.828;6.440;2023-05-10T13:02:17;16.30;99.90
19555;DHT22;9924;50.828;6.440;2023-05-10T13:05:07;16.40;99.90
19555;DHT22;9924;50.828;6.440;2023-05-10T13:07:52;16.80;99.90
19555;DHT22;9924;50.828;6.440;2023-05-10T13:10:36;17.60;99.90
19555;DHT22;9924;50.828;6.440;2023-05-10T13:13:21;18.10;99.90
19555;DHT22;9924;50.828;6.440;2023-05-10T13:16:06;18.50;99.90
19555;DHT22;9924;50.828;6.440;2023-05-10T13:18:51;18.60;99.90
19555;DHT22;9924;50.828;6.440;2023-05-10T13:21:36;18.40;99.90
19555;DHT22;9924;50.828;6.440;2023-05-10T13:24:21;18.20;99.90
19555;DHT22;9924;50.828;6.440;2023-05-10T13:27:06;18.30;99.90
19555;DHT22;9924;50.828;6.440;2023-05-10T13:29:51;18.50;99.90
19555;DHT22;9924;50.828;6.440;2023-05-10T13:32:36;18.60;99.90
19555;DHT22;9924;50.828;6.440;2023-05-10T13:35:21;18.70;99.90
19555;DHT22;9924;50.828;6.440;2023-05-10T13:38:06;18.90;99.90
19555;DHT22;9924;50.828;6.440;2023-05-10T13:40:52;19.00;99.90
19555;DHT22;9924;50.828;6.440;2023-05-10T13:43:37;19.10;99.90
19555;DHT22;9924;50.828;6.440;2023-05-10T13:46:21;19.10;99.90
19555;DHT22;9924;50.828;6.440;2023-05-10T13:49:06;18.80;99.90
19555;DHT22;9924;50.828;6.440;2023-05-10T13:51:51;18.80;99.90
19555;DHT22;9924;50.828;6.440;2023-05-10T13:54:37;18.80;99.90
19555;DHT22;9924;50.828;6.440;2023-05-10T13:57:23;18.80;99.90
19555;DHT22;9924;50.828;6.440;2023-05-10T14:00:09;19.00;99.90
19555;DHT22;9924;50.828;6.440;2023-05-10T14:02:54;18.90;99.90
19555;DHT22;9924;50.828;6.440;2023-05-10T14:05:41;18.50;99.90
19555;DHT22;9924;50.828;6.440;2023-05-10T14:08:26;18.50;99.90
19555;DHT22;9924;50.828;6.440;2023-05-10T14:11:11;18.80;99.90
19555;DHT22;9924;50.828;6.440;2023-05-10T14:13:56;18.90;99.90
19555;DHT22;9924;50.828;6.440;2023-05-10T14:16:42;19.00;99.90
19555;DHT22;9924;50.828;6.440;2023-05-10T14:19:27;18.80;99.90
19555;DHT22;9924;50.828;6.440;2023-05-10T14:22:14;18.20;99.90
19555;DHT22;9924;50.828;6.440;2023-05-10T14:24:59;17.80;99.90
19555;DHT22;9924;50.828;6.440;2023-05-10T14:27:45;17.40;99.90
19555;DHT22;9924;50.828;6.440;2023-05-10T14:30:31;17.00;99.90
19555;DHT22;9924;50.828;6.440;2023-05-10T14:33:17;16.60;99.90
19555;DHT22;9924;50.828;6.440;2023-05-10T14:36:01;16.60;99.90
19555;DHT22;9924;50.828;6.440;2023-05-10T14:38:47;16.50;99.90
19555;DHT22;9924;50.828;6.440;2023-05-10T14:41:31;16.50;99.90
19555;DHT22;9924;50.828;6.440;2023-05-10T14:44:17;16.30;99.90
19555;DHT22;9924;50.828;6.440;2023-05-10T14:47:01;16.20;99.90
19555;DHT22;9924;50.828;6.440;2023-05-10T14:49:46;16.20;99.90
19555;DHT22;9924;50.828;6.440;2023-05-10T14:52:31;16.10;99.90
19555;DHT22;9924;50.828;6.440;2023-05-10T14:55:16;16.10;99.90
19555;DHT22;9924;50.828;6.440;2023-05-10T14:58:02;16.10;99.90
19555;DHT22;9924;50.828;6.440;2023-05-10T15:00:47;16.00;99.90
19555;DHT22;9924;50.828;6.440;2023-05-10T15:03:32;16.10;99.90
19555;DHT22;9924;50.828;6.440;2023-05-10T15:06:17;16.20;99.90
19555;DHT22;9924;50.828;6.440;2023-05-10T15:09:02;16.10;99.90
19555;DHT22;9924;50.828;6.440;2023-05-10T15:11:50;16.30;99.90
19555;DHT22;9924;50.828;6.440;2023-05-10T15:14:38;16.40;99.90
19555;DHT22;9924;50.828;6.440;2023-05-10T15:17:23;16.40;99.90
19555;DHT22;9924;50.828;6.440;2023-05-10T15:20:08;16.40;99.90
19555;DHT22;9924;50.828;6.440;2023-05-10T15:22:52;16.30;99.90
19555;DHT22;9924;50.828;6.440;2023-05-10T15:25:37;16.20;99.90
19555;DHT22;9924;50.828;6.440;2023-05-10T15:28:22;16.20;99.90
19555;DHT22;9924;50.828;6.440;2023-05-10T15:31:09;16.30;99.90
19555;DHT22;9924;50.828;6.440;2023-05-10T15:33:59;16.40;99.90
19555;DHT22;9924;50.828;6.440;2023-05-10T15:36:45;16.50;99.90
19555;DHT22;9924;50.828;6.440;2023-05-10T15:39:30;16.80;99.90
19555;DHT22;9924;50.828;6.440;2023-05-10T15:42:15;17.00;99.90
19555;DHT22;9924;50.828;6.440;2023-05-10T15:45:00;17.10;99.90
19555;DHT22;9924;50.828;6.440;2023-05-10T15:47:45;16.90;99.90
19555;DHT22;9924;50.828;6.440;2023-05-10T15:50:30;16.90;99.90
19555;DHT22;9924;50.828;6.440;2023-05-10T15:53:15;16.90;99.90
19555;DHT22;9924;50.828;6.440;2023-05-10T15:55:59;17.00;99.90
19555;DHT22;9924;50.828;6.440;2023-05-10T15:58:44;17.00;99.90
19555;DHT22;9924;50.828;6.440;2023-05-10T16:01:29;16.80;99.90
19555;DHT22;9924;50.828;6.440;2023-05-10T16:04:15;16.60;99.90
19555;DHT22;9924;50.828;6.440;2023-05-10T16:07:00;16.50;99.90
19555;DHT22;9924;50.828;6.440;2023-05-10T16:09:45;16.40;99.90
19555;DHT22;9924;50.828;6.440;2023-05-10T16:12:30;16.50;99.90
19555;DHT22;9924;50.828;6.440;2023-05-10T16:15:14;16.50;99.90
19555;DHT22;9924;50.828;6.440;2023-05-10T16:17:59;16.60;99.90
19555;DHT22;9924;50.828;6.440;2023-05-10T16:20:45;16.70;99.90
19555;DHT22;9924;50.828;6.440;2023-05-10T16:23:30;16.80;99.90
19555;DHT22;9924;50.828;6.440;2023-05-10T16:26:14;17.00;99.90
19555;DHT22;9924;50.828;6.440;2023-05-10T16:28:59;17.00;99.90
19555;DHT22;9924;50.828;6.440;2023-05-10T16:31:45;17.10;99.90
19555;DHT22;9924;50.828;6.440;2023-05-10T16:34:29;17.10;99.90
19555;DHT22;9924;50.828;6.440;2023-05-10T16:37:14;17.10;99.90
19555;DHT22;9924;50.828;6.440;2023-05-10T16:39:59;17.20;99.90
19555;DHT22;9924;50.828;6.440;2023-05-10T16:42:43;17.20;99.90
19555;DHT22;9924;50.828;6.440;2023-05-10T16:45:30;17.30;99.90
19555;DHT22;9924;50.828;6.440;2023-05-10T16:48:15;17.30;99.90
19555;DHT22;9924;50.828;6.440;2023-05-10T16:51:01;17.20;99.90
19555;DHT22;9924;50.828;6.440;2023-05-10T16:53:47;17.30;99.90
19555;DHT22;9924;50.828;6.440;2023-05-10T16:56:32;17.30;99.90
19555;DHT22;9924;50.828;6.440;2023-05-10T16:59:16;17.40;99.90
19555;DHT22;9924;50.828;6.440;2023-05-10T17:02:02;17.60;99.90
19555;DHT22;9924;50.828;6.440;2023-05-10T17:04:47;17.90;99.90
19555;DHT22;9924;50.828;6.440;2023-05-10T17:07:32;18.00;99.90
19555;DHT22;9924;50.828;6.440;2023-05-10T17:10:16;18.10;99.90
19555;DHT22;9924;50.828;6.440;2023-05-10T17:13:01;18.20;99.90
19555;DHT22;9924;50.828;6.440;2023-05-10T17:15:46;18.00;99.90
19555;DHT22;9924;50.828;6.440;2023-05-10T17:18:30;17.80;99.90
19555;DHT22;9924;50.828;6.440;2023-05-10T17:21:15;18.40;99.90
19555;DHT22;9924;50.828;6.440;2023-05-10T17:24:00;18.40;99.90
19555;DHT22;9924;50.828;6.440;2023-05-10T17:26:44;17.90;99.90
19555;DHT22;9924;50.828;6.440;2023-05-10T17:29:29;17.80;99.90
19555;DHT22;9924;50.828;6.440;2023-05-10T17:32:15;18.10;99.90
19555;DHT22;9924;50.828;6.440;2023-05-10T17:35:01;18.40;99.90
19555;DHT22;9924;50.828;6.440;2023-05-10T17:37:47;18.20;99.90
19555;DHT22;9924;50.828;6.440;2023-05-10T17:40:34;17.90;99.90
19555;DHT22;9924;50.828;6.440;2023-05-10T17:43:19;17.70;99.90
19555;DHT22;9924;50.828;6.440;2023-05-10T17:46:05;17.40;99.90
19555;DHT22;9924;50.828;6.440;2023-05-10T17:48:49;17.10;99.90
19555;DHT22;9924;50.828;6.440;2023-05-10T17:51:34;16.90;99.90
19555;DHT22;9924;50.828;6.440;2023-05-10T17:54:19;16.80;99.90
19555;DHT22;9924;50.828;6.440;2023-05-10T17:57:03;16.80;99.90
19555;DHT22;9924;50.828;6.440;2023-05-10T17:59:49;16.70;99.90
19555;DHT22;9924;50.828;6.440;2023-05-10T18:02:36;16.70;99.90
19555;DHT22;9924;50.828;6.440;2023-05-10T18:05:21;16.60;99.90
19555;DHT22;9924;50.828;6.440;2023-05-10T18:08:08;16.50;99.90